Time;durP1;ratioP1;P1;durP2;ratioP2;P2;SDS_P1;SDS_P2;PMS_P1;PMS_P2;Temp;Humidity;BMP_temperature;BMP_pressure;BME280_temperature;BME280_humidity;BME280_pressure;Samples;Min_cycle;Max_cycle;Signal;HPM_P1;HPM_P2
2024/01/10 00:01:18;;;;;;;;;;;;;;;6.37;31.89;101556.88;4444931;32;34395;-79
2024/01/10 00:03:46;;;;;;;;;;;;;;;6.22;31.65;101555.50;4452353;32;33735;-79
2024/01/10 00:06:13;;;;;;;;;;;;;;;6.05;31.77;101556.56;4452712;32;34144;-79
2024/01/10 00:08:40;;;;;;;;;;;;;;;5.76;32.08;101551.31;4453220;32;33895;-79
2024/01/10 00:11:08;;;;;;;;;;;;;;;6.14;31.55;101546.19;4452183;32;34938;-79
2024/01/10 00:13:35;;;;;;;;;;;;;;;6.64;30.85;101547.22;4437837;32;31737;-79
2024/01/10 00:16:03;;;;;;;;;;;;;;;6.27;31.21;101560.28;4452217;32;34004;-79
2024/01/10 00:18:33;;;;;;;;;;;;;;;5.85;31.88;101557.28;4461366;32;36002;-79
2024/01/10 00:21:00;;;;;;;;;;;;;;;5.92;31.90;101559.66;4455778;32;34983;-79
2024/01/10 00:23:28;;;;;;;;;;;;;;;5.80;32.04;101556.88;4457802;32;33058;-79
2024/01/10 00:25:55;;;;;;;;;;;;;;;5.98;31.92;101560.25;4456084;32;35047;-79
2024/01/10 00:28:22;;;;;;;;;;;;;;;5.96;32.15;101560.88;4451705;32;34056;-79
2024/01/10 00:30:49;;;;;;;;;;;;;;;5.96;32.18;101561.78;4451091;32;34451;-79
2024/01/10 00:33:17;;;;;;;;;;;;;;;6.14;32.18;101562.53;4435989;32;33909;-79
2024/01/10 00:35:44;;;;;;;;;;;;;;;6.22;31.94;101560.66;4440666;32;34146;-80
2024/01/10 00:38:12;;;;;;;;;;;;;;;6.29;31.83;101561.34;4458857;32;34907;-80
2024/01/10 00:40:40;;;;;;;;;;;;;;;5.94;32.11;101557.22;4450346;32;34530;-79
2024/01/10 00:43:07;;;;;;;;;;;;;;;5.51;33.03;101555.06;4450742;32;34370;-80
2024/01/10 00:45:35;;;;;;;;;;;;;;;5.83;32.92;101558.81;4450671;32;34668;-79
2024/01/10 00:48:02;;;;;;;;;;;;;;;5.94;32.66;101563.25;4463270;32;33578;-79
2024/01/10 00:50:29;;;;;;;;;;;;;;;5.81;33.00;101566.38;4458796;32;34610;-78
2024/01/10 00:52:57;;;;;;;;;;;;;;;5.98;32.59;101562.81;4453637;32;33451;-79
2024/01/10 00:55:26;;;;;;;;;;;;;;;6.15;32.14;101559.22;4437818;32;32558;-79
2024/01/10 00:57:55;;;;;;;;;;;;;;;6.33;31.69;101564.19;4437322;32;33483;-80
2024/01/10 01:00:23;;;;;;;;;;;;;;;6.13;31.80;101559.84;4452239;32;34862;-79
2024/01/10 01:02:52;;;;;;;;;;;;;;;6.34;31.51;101564.34;4437764;32;34059;-79
2024/01/10 01:05:20;;;;;;;;;;;;;;;6.06;31.87;101564.41;4447317;32;34259;-79
2024/01/10 01:07:48;;;;;;;;;;;;;;;5.78;32.28;101565.22;4451344;32;35170;-79
2024/01/10 01:10:17;;;;;;;;;;;;;;;5.74;32.23;101565.66;4441259;32;34471;-80
2024/01/10 01:12:45;;;;;;;;;;;;;;;5.63;32.08;101565.59;4460009;32;33607;-79
2024/01/10 01:15:14;;;;;;;;;;;;;;;5.48;32.24;101564.16;4451435;32;34099;-79
2024/01/10 01:17:42;;;;;;;;;;;;;;;5.46;32.16;101566.56;4454633;32;32961;-79
2024/01/10 01:20:10;;;;;;;;;;;;;;;5.56;31.92;101568.34;4452426;32;34653;-79
2024/01/10 01:22:38;;;;;;;;;;;;;;;5.86;31.45;101564.25;4456496;32;33631;-78
2024/01/10 01:25:07;;;;;;;;;;;;;;;5.79;31.22;101567.00;4437393;32;32310;-79
2024/01/10 01:27:34;;;;;;;;;;;;;;;5.87;31.02;101571.19;4453092;32;34167;-79
2024/01/10 01:30:02;;;;;;;;;;;;;;;5.83;31.07;101569.09;4453719;32;34805;-79
2024/01/10 01:32:29;;;;;;;;;;;;;;;5.86;30.94;101564.25;4451184;32;34086;-79
2024/01/10 01:34:57;;;;;;;;;;;;;;;5.90;30.98;101571.47;4452018;32;34184;-79
2024/01/10 01:37:25;;;;;;;;;;;;;;;5.97;31.08;101567.81;4451891;32;32565;-79
2024/01/10 01:39:54;;;;;;;;;;;;;;;5.95;30.90;101565.13;4450990;32;34194;-79
2024/01/10 01:42:21;;;;;;;;;;;;;;;5.97;30.74;101568.75;4451447;32;33521;-79
2024/01/10 01:44:49;;;;;;;;;;;;;;;6.03;30.77;101568.41;4451896;32;35394;-79
2024/01/10 01:47:18;;;;;;;;;;;;;;;5.47;31.60;101568.41;4452222;32;34576;-79
2024/01/10 01:49:46;;;;;;;;;;;;;;;5.52;31.64;101568.81;4443606;32;34486;-79
2024/01/10 01:52:14;;;;;;;;;;;;;;;5.51;31.47;101564.47;4442060;32;34237;-79
2024/01/10 01:54:42;;;;;;;;;;;;;;;5.40;31.41;101559.97;4438487;32;32743;-79
2024/01/10 02:03:39;;;;;;;;;;;;;;;5.12;31.57;101552.25;4455800;32;33501;-79
2024/01/10 02:06:06;;;;;;;;;;;;;;;5.17;31.42;101550.09;4458856;32;33723;-79
2024/01/10 02:08:34;;;;;;;;;;;;;;;5.40;31.18;101549.69;4455856;32;34002;-79
2024/01/10 02:11:02;;;;;;;;;;;;;;;5.29;31.20;101548.69;4457015;32;34193;-79
2024/01/10 02:13:30;;;;;;;;;;;;;;;5.55;30.92;101545.97;4450337;32;33100;-79
2024/01/10 02:15:57;;;;;;;;;;;;;;;5.43;31.08;101544.84;4450565;32;33849;-79
2024/01/10 02:18:24;;;;;;;;;;;;;;;5.47;31.03;101546.94;4448018;32;34794;-79
2024/01/10 02:20:52;;;;;;;;;;;;;;;5.20;31.07;101546.16;4448335;32;35610;-79
2024/01/10 02:23:19;;;;;;;;;;;;;;;5.49;30.79;101546.31;4453353;32;34626;-79
2024/01/10 02:25:46;;;;;;;;;;;;;;;5.38;30.77;101543.50;4453482;32;33870;-79
2024/01/10 02:28:14;;;;;;;;;;;;;;;5.28;30.77;101545.22;4458384;32;33976;-79
2024/01/10 02:30:41;;;;;;;;;;;;;;;5.41;30.62;101546.34;4453272;32;34140;-79
2024/01/10 02:33:08;;;;;;;;;;;;;;;5.40;30.61;101539.41;4454818;32;33065;-79
2024/01/10 02:35:36;;;;;;;;;;;;;;;5.39;30.44;101537.59;4437296;32;34782;-79
2024/01/10 02:38:03;;;;;;;;;;;;;;;5.40;30.52;101536.84;4453061;32;34181;-79
2024/01/10 02:40:31;;;;;;;;;;;;;;;5.49;30.34;101540.28;4455780;32;34289;-79
2024/01/10 02:42:58;;;;;;;;;;;;;;;5.45;30.24;101539.09;4440240;32;34133;-79
2024/01/10 02:45:25;;;;;;;;;;;;;;;5.25;30.54;101539.81;4450565;32;34116;-79
2024/01/10 02:47:53;;;;;;;;;;;;;;;5.38;30.30;101535.81;4457863;32;34250;-79
2024/01/10 02:50:20;;;;;;;;;;;;;;;5.36;30.34;101543.38;4457696;32;34231;-79
2024/01/10 02:52:48;;;;;;;;;;;;;;;5.36;30.31;101538.22;4457584;32;34310;-79
2024/01/10 02:55:15;;;;;;;;;;;;;;;5.34;30.26;101538.84;4451620;32;34221;-79
2024/01/10 02:57:42;;;;;;;;;;;;;;;5.36;30.26;101538.22;4455140;32;34171;-79
2024/01/10 03:00:11;;;;;;;;;;;;;;;5.28;30.57;101536.62;4457738;32;34518;-79
2024/01/10 03:02:38;;;;;;;;;;;;;;;5.27;30.27;101538.28;4461659;32;33045;-79
2024/01/10 03:05:06;;;;;;;;;;;;;;;5.36;30.55;101535.66;4454136;32;35074;-79
2024/01/10 03:07:33;;;;;;;;;;;;;;;5.34;30.54;101538.84;4450912;32;34171;-79
2024/01/10 03:10:00;;;;;;;;;;;;;;;5.20;30.67;101530.75;4453498;32;34431;-79
2024/01/10 03:12:28;;;;;;;;;;;;;;;5.36;30.63;101534.75;4452514;32;33448;-79
2024/01/10 03:14:55;;;;;;;;;;;;;;;5.21;30.51;101537.69;4458108;32;33903;-79
2024/01/10 03:17:22;;;;;;;;;;;;;;;4.88;31.10;101538.87;4460236;32;33656;-79
2024/01/10 03:19:52;;;;;;;;;;;;;;;5.08;30.65;101538.22;4452121;32;34773;-79
2024/01/10 03:22:19;;;;;;;;;;;;;;;5.01;30.64;101543.53;4452539;32;33934;-79
2024/01/10 03:24:46;;;;;;;;;;;;;;;4.95;30.68;101544.63;4453016;32;34870;-79
2024/01/10 03:27:14;;;;;;;;;;;;;;;5.09;30.52;101541.69;4457047;32;35166;-79
2024/01/10 03:29:41;;;;;;;;;;;;;;;5.08;30.60;101539.84;4457492;32;35182;-79
2024/01/10 03:32:08;;;;;;;;;;;;;;;5.02;30.65;101546.97;4465945;32;33329;-79
2024/01/10 03:34:36;;;;;;;;;;;;;;;4.90;30.71;101545.06;4456382;32;34129;-79
2024/01/10 03:37:03;;;;;;;;;;;;;;;5.46;29.78;101545.13;4436942;32;35413;-80
2024/01/10 03:39:31;;;;;;;;;;;;;;;5.15;30.05;101547.38;4441360;32;35045;-79
2024/01/10 03:41:58;;;;;;;;;;;;;;;5.31;29.97;101540.38;4435118;32;33562;-79
2024/01/10 03:44:28;;;;;;;;;;;;;;;5.74;29.71;101537.38;4453187;32;34952;-79
2024/01/10 03:46:55;;;;;;;;;;;;;;;5.79;29.74;101538.72;4454434;32;33821;-79
2024/01/10 03:49:23;;;;;;;;;;;;;;;5.76;29.67;101535.88;4453716;32;35111;-79
2024/01/10 03:51:50;;;;;;;;;;;;;;;5.45;30.00;101528.81;4460940;32;33571;-79
2024/01/10 03:54:17;;;;;;;;;;;;;;;5.01;30.60;101542.63;4458376;32;34083;-79
2024/01/10 03:56:45;;;;;;;;;;;;;;;4.91;30.47;101541.75;4454158;32;34024;-79
2024/01/10 03:59:12;;;;;;;;;;;;;;;4.67;30.65;101541.97;4452858;32;34366;-79
2024/01/10 04:01:39;;;;;;;;;;;;;;;4.49;30.88;101547.12;4464608;32;34011;-79
2024/01/10 04:04:07;;;;;;;;;;;;;;;4.69;30.78;101553.28;4443997;32;34823;-79
2024/01/10 04:06:34;;;;;;;;;;;;;;;4.53;30.83;101546.66;4451449;32;33997;-79
2024/01/10 04:09:02;;;;;;;;;;;;;;;4.46;31.00;101554.56;4454480;32;34345;-79
2024/01/10 04:11:30;;;;;;;;;;;;;;;4.72;30.61;101545.87;4455099;32;33129;-79
2024/01/10 04:13:57;;;;;;;;;;;;;;;4.93;30.47;101540.22;4456253;32;34261;-78
2024/01/10 04:16:25;;;;;;;;;;;;;;;4.65;30.50;101540.91;4452710;32;33969;-79
2024/01/10 04:18:53;;;;;;;;;;;;;;;4.70;30.51;101537.12;4445225;32;35172;-79
2024/01/10 04:21:20;;;;;;;;;;;;;;;4.61;30.68;101549.06;4449641;32;33336;-79
2024/01/10 04:23:47;;;;;;;;;;;;;;;4.49;30.91;101554.81;4452660;32;34248;-79
2024/01/10 04:26:15;;;;;;;;;;;;;;;4.86;30.79;101548.09;4451802;32;34261;-79
2024/01/10 04:28:42;;;;;;;;;;;;;;;4.75;30.81;101551.28;4452574;32;33788;-79
2024/01/10 04:31:09;;;;;;;;;;;;;;;4.60;31.24;101552.41;4452371;32;33844;-79
2024/01/10 04:33:37;;;;;;;;;;;;;;;4.70;31.63;101553.44;4461100;32;34015;-79
2024/01/10 04:36:04;;;;;;;;;;;;;;;4.99;31.05;101549.28;4460311;32;33885;-79
2024/01/10 04:38:32;;;;;;;;;;;;;;;4.54;31.73;101550.16;4456295;32;34424;-79
2024/01/10 04:40:59;;;;;;;;;;;;;;;4.44;31.60;101556.06;4437340;32;34365;-79
2024/01/10 04:43:26;;;;;;;;;;;;;;;4.64;31.31;101554.53;4451190;32;34137;-78
2024/01/10 04:45:53;;;;;;;;;;;;;;;4.39;31.48;101562.41;4451398;32;34160;-79
2024/01/10 04:48:21;;;;;;;;;;;;;;;4.28;31.69;101557.88;4454592;32;34556;-79
2024/01/10 04:50:48;;;;;;;;;;;;;;;4.48;31.55;101558.16;4447462;32;33338;-79
2024/01/10 04:53:16;;;;;;;;;;;;;;;4.43;31.68;101551.69;4453021;32;34170;-79
2024/01/10 04:55:43;;;;;;;;;;;;;;;4.82;31.17;101556.25;4453046;32;34255;-79
2024/01/10 04:58:12;;;;;;;;;;;;;;;5.06;30.95;101559.34;4454166;32;34527;-79
2024/01/10 05:00:39;;;;;;;;;;;;;;;5.02;31.06;101555.63;4452444;32;34310;-79
2024/01/10 05:03:06;;;;;;;;;;;;;;;4.76;31.57;101555.69;4448130;32;34085;-80
2024/01/10 05:05:34;;;;;;;;;;;;;;;5.00;31.14;101561.34;4452614;32;34186;-79
2024/01/10 05:08:01;;;;;;;;;;;;;;;4.94;30.83;101556.53;4453609;32;34549;-79
2024/01/10 05:10:29;;;;;;;;;;;;;;;4.73;31.08;101563.06;4451720;32;34368;-79
2024/01/10 05:12:56;;;;;;;;;;;;;;;4.66;30.95;101566.72;4449967;32;33539;-79
2024/01/10 05:15:23;;;;;;;;;;;;;;;4.67;30.95;101560.81;4451115;32;33624;-79
2024/01/10 05:17:51;;;;;;;;;;;;;;;4.16;31.37;101566.94;4451829;32;34452;-79
2024/01/10 05:20:18;;;;;;;;;;;;;;;4.57;31.10;101572.63;4454251;32;33473;-79
2024/01/10 05:22:45;;;;;;;;;;;;;;;4.71;30.75;101572.31;4458910;32;34124;-79
2024/01/10 05:25:13;;;;;;;;;;;;;;;5.18;29.68;101565.69;4451420;32;34911;-79
2024/01/10 05:27:40;;;;;;;;;;;;;;;5.37;29.24;101570.88;4451146;32;34474;-79
2024/01/10 05:30:08;;;;;;;;;;;;;;;4.88;29.92;101569.69;4448952;32;34106;-79
2024/01/10 05:32:36;;;;;;;;;;;;;;;4.92;29.96;101569.25;4457909;32;34074;-79
2024/01/10 05:35:04;;;;;;;;;;;;;;;4.97;29.91;101576.47;4453845;32;34066;-79
2024/01/10 05:37:32;;;;;;;;;;;;;;;5.06;29.73;101574.75;4453790;32;34021;-79
2024/01/10 05:40:00;;;;;;;;;;;;;;;5.00;29.94;101571.63;4446674;32;33403;-79
2024/01/10 05:42:27;;;;;;;;;;;;;;;5.10;29.67;101564.06;4451576;32;33873;-79
2024/01/10 05:44:55;;;;;;;;;;;;;;;4.96;29.95;101570.41;4452499;32;34256;-79
2024/01/10 05:47:22;;;;;;;;;;;;;;;4.82;30.10;101569.09;4448166;32;33671;-79
2024/01/10 05:49:50;;;;;;;;;;;;;;;4.74;30.22;101572.59;4453117;32;33580;-79
2024/01/10 05:52:17;;;;;;;;;;;;;;;4.47;39.83;101566.59;4455698;32;33660;-79
2024/01/10 05:54:45;;;;;;;;;;;;;;;4.62;36.26;101567.19;4457263;32;34198;-79
2024/01/10 05:57:12;;;;;;;;;;;;;;;4.69;51.70;101573.81;4452743;32;33902;-80
2024/01/10 05:59:39;;;;;;;;;;;;;;;5.00;47.58;101564.81;4451579;32;34343;-79
2024/01/10 06:02:10;;;;;;;;;;;;;;;5.02;45.52;101572.66;4451959;32;34002;-78
2024/01/10 06:04:37;;;;;;;;;;;;;;;4.85;43.28;101577.13;4459686;32;34634;-78
2024/01/10 06:07:05;;;;;;;;;;;;;;;4.97;41.35;101582.53;4447483;32;33323;-79
2024/01/10 06:09:32;;;;;;;;;;;;;;;4.91;39.57;101581.94;4452661;32;32934;-78
2024/01/10 06:12:00;;;;;;;;;;;;;;;4.64;36.98;101575.06;4453268;32;33020;-79
2024/01/10 06:14:27;;;;;;;;;;;;;;;4.48;35.81;101578.69;4443597;32;33821;-79
2024/01/10 06:16:55;;;;;;;;;;;;;;;4.72;33.91;101581.81;4455308;32;34994;-80
2024/01/10 06:19:23;;;;;;;;;;;;;;;4.61;33.38;101590.16;4451669;32;33716;-79
2024/01/10 06:21:51;;;;;;;;;;;;;;;4.87;32.58;101588.44;4452885;32;34882;-79
2024/01/10 06:24:19;;;;;;;;;;;;;;;4.85;32.37;101584.81;4439869;32;33129;-80
2024/01/10 06:26:46;;;;;;;;;;;;;;;4.76;32.28;101586.50;4458676;32;34167;-80
2024/01/10 06:29:13;;;;;;;;;;;;;;;4.44;32.40;101592.00;4455062;32;33536;-79
2024/01/10 06:31:41;;;;;;;;;;;;;;;4.40;32.26;101584.72;4439354;32;32462;-79
2024/01/10 06:34:08;;;;;;;;;;;;;;;4.27;32.33;101586.88;4455004;32;34194;-81
2024/01/10 06:36:36;;;;;;;;;;;;;;;4.27;32.44;101597.13;4453925;32;34073;-80
2024/01/10 06:39:03;;;;;;;;;;;;;;;4.47;31.90;101597.41;4453118;32;33444;-80
2024/01/10 06:41:31;;;;;;;;;;;;;;;4.39;32.18;101593.19;4446929;32;34246;-80
2024/01/10 06:44:03;;;;;;;;;;;;;;;3.91;32.67;101596.16;4453479;32;34054;-80
2024/01/10 06:46:31;;;;;;;;;;;;;;;4.49;32.33;101600.13;4452862;32;34284;-81
2024/01/10 06:48:59;;;;;;;;;;;;;;;4.32;32.25;101601.03;4439818;32;34479;-80
2024/01/10 06:51:29;;;;;;;;;;;;;;;4.38;32.13;101601.62;4453547;32;33979;-80
2024/01/10 06:54:02;;;;;;;;;;;;;;;4.26;32.34;101605.56;4453170;32;33418;-80
2024/01/10 06:56:30;;;;;;;;;;;;;;;4.34;31.99;101604.66;4453867;32;33004;-80
2024/01/10 06:58:58;;;;;;;;;;;;;;;4.31;32.02;101604.38;4450254;32;34215;-80
2024/01/10 07:01:26;;;;;;;;;;;;;;;4.51;31.81;101609.78;4439143;32;34024;-80
2024/01/10 07:03:54;;;;;;;;;;;;;;;4.58;31.80;101610.38;4447868;32;35144;-80
2024/01/10 07:06:22;;;;;;;;;;;;;;;4.33;32.21;101613.13;4453784;32;33681;-80
2024/01/10 07:08:50;;;;;;;;;;;;;;;4.21;32.60;101620.50;4440988;32;33099;-80
2024/01/10 07:11:17;;;;;;;;;;;;;;;4.29;32.63;101626.41;4427389;32;34705;-80
2024/01/10 07:13:45;;;;;;;;;;;;;;;4.41;32.39;101612.19;4453839;32;34280;-81
2024/01/10 07:16:14;;;;;;;;;;;;;;;4.44;32.37;101627.91;4439697;32;33826;-80
2024/01/10 07:18:42;;;;;;;;;;;;;;;4.48;32.25;101618.81;4439825;32;32829;-80
2024/01/10 07:21:10;;;;;;;;;;;;;;;4.55;32.34;101625.47;4441851;32;34788;-80
2024/01/10 07:23:40;;;;;;;;;;;;;;;4.68;32.00;101623.37;4439752;32;34586;-80
2024/01/10 07:26:07;;;;;;;;;;;;;;;4.67;31.92;101629.22;4453672;32;34948;-80
2024/01/10 07:28:35;;;;;;;;;;;;;;;4.84;31.67;101626.66;4453723;32;33818;-80
2024/01/10 07:31:02;;;;;;;;;;;;;;;4.92;31.42;101625.75;4453978;32;33858;-80
2024/01/10 07:33:33;;;;;;;;;;;;;;;5.11;31.09;101614.66;4453640;32;35020;-80
2024/01/10 07:36:01;;;;;;;;;;;;;;;4.98;31.29;101620.25;4454034;32;35175;-80
2024/01/10 07:38:28;;;;;;;;;;;;;;;5.09;31.30;101619.63;4453628;32;33613;-80
2024/01/10 07:40:55;;;;;;;;;;;;;;;5.13;31.27;101614.03;4452746;32;34628;-80
2024/01/10 07:43:23;;;;;;;;;;;;;;;5.10;31.47;101615.44;4456254;32;33995;-80
2024/01/10 07:45:50;;;;;;;;;;;;;;;5.30;31.30;101610.50;4453090;32;35166;-80
2024/01/10 07:48:18;;;;;;;;;;;;;;;5.34;31.31;101610.81;4432461;32;33513;-79
2024/01/10 07:50:46;;;;;;;;;;;;;;;5.12;40.13;101621.62;4451713;32;34012;-80
2024/01/10 07:53:13;;;;;;;;;;;;;;;5.23;35.77;101612.34;4441511;32;34034;-80
2024/01/10 07:55:40;;;;;;;;;;;;;;;5.74;33.70;101620.59;4452448;32;34144;-81
2024/01/10 07:58:08;;;;;;;;;;;;;;;5.44;39.59;101618.59;4451926;32;34224;-81
2024/01/10 08:00:35;;;;;;;;;;;;;;;5.45;36.66;101625.56;4453679;32;34712;-80
2024/01/10 08:03:03;;;;;;;;;;;;;;;5.64;34.57;101613.69;4440618;32;34856;-80
2024/01/10 08:05:31;;;;;;;;;;;;;;;5.80;33.35;101620.25;4452179;32;35015;-79
2024/01/10 08:07:58;;;;;;;;;;;;;;;5.67;32.46;101616.53;4439315;32;34775;-80
2024/01/10 08:10:27;;;;;;;;;;;;;;;5.62;32.14;101614.28;4452617;32;34223;-80
2024/01/10 08:12:54;;;;;;;;;;;;;;;5.64;31.86;101616.25;4452788;32;34825;-79
2024/01/10 08:15:21;;;;;;;;;;;;;;;5.95;33.71;101621.72;4454344;32;35027;-80
2024/01/10 08:17:49;;;;;;;;;;;;;;;6.40;31.57;101624.09;4453484;32;33259;-80
2024/01/10 08:20:20;;;;;;;;;;;;;;;6.22;31.11;101632.69;4448791;32;34234;-79
2024/01/10 08:22:48;;;;;;;;;;;;;;;6.21;30.91;101623.19;4452674;32;33948;-80
2024/01/10 08:25:18;;;;;;;;;;;;;;;6.33;30.64;101631.13;4449749;32;34067;-79
2024/01/10 08:27:45;;;;;;;;;;;;;;;6.49;30.32;101630.09;4451153;32;33594;-80
2024/01/10 08:30:13;;;;;;;;;;;;;;;6.44;30.30;101626.19;4429261;32;34232;-80
2024/01/10 08:32:41;;;;;;;;;;;;;;;6.77;29.46;101626.50;4450555;32;34489;-80
2024/01/10 08:35:08;;;;;;;;;;;;;;;6.99;29.02;101629.28;4450026;32;34120;-79
2024/01/10 08:37:37;;;;;;;;;;;;;;;7.02;28.89;101634.72;4443601;32;34155;-78
2024/01/10 08:40:11;;;;;;;;;;;;;;;6.85;28.82;101636.69;4439203;32;34285;-80
2024/01/10 08:42:38;;;;;;;;;;;;;;;7.03;28.76;101623.63;4453166;32;34085;-80
2024/01/10 08:45:09;;;;;;;;;;;;;;;7.50;28.13;101626.91;4452689;32;34451;-80
2024/01/10 08:47:36;;;;;;;;;;;;;;;7.44;27.87;101627.25;4447196;32;33390;-80
2024/01/10 08:50:04;;;;;;;;;;;;;;;7.06;28.43;101636.81;4434804;32;33963;-80
2024/01/10 08:52:32;;;;;;;;;;;;;;;7.37;28.23;101629.19;4437386;32;34147;-80
2024/01/10 08:55:00;;;;;;;;;;;;;;;7.24;28.46;101633.28;4451732;32;34402;-80
2024/01/10 08:57:28;;;;;;;;;;;;;;;7.31;28.37;101628.66;4453381;32;33549;-80
2024/01/10 08:59:55;;;;;;;;;;;;;;;7.50;28.09;101631.16;4453661;32;34309;-81
2024/01/10 09:02:23;;;;;;;;;;;;;;;7.75;27.82;101623.84;4455237;32;34248;-79
2024/01/10 09:04:51;;;;;;;;;;;;;;;7.46;28.04;101632.56;4439764;32;34459;-80
2024/01/10 09:07:19;;;;;;;;;;;;;;;8.12;27.31;101626.94;4443571;32;34183;-79
2024/01/10 09:09:46;;;;;;;;;;;;;;;7.90;27.16;101632.88;4455497;32;33875;-85
2024/01/10 09:12:14;;;;;;;;;;;;;;;8.06;26.73;101630.81;4439929;32;33953;-81
2024/01/10 09:14:41;;;;;;;;;;;;;;;7.91;26.59;101621.78;4443254;32;35070;-81
2024/01/10 09:17:08;;;;;;;;;;;;;;;8.06;26.52;101622.16;4454129;32;33235;-80
2024/01/10 09:19:36;;;;;;;;;;;;;;;8.23;26.38;101615.84;4454390;32;34249;-81
2024/01/10 09:22:03;;;;;;;;;;;;;;;8.30;26.26;101612.97;4447993;32;32731;-80
2024/01/10 09:24:32;;;;;;;;;;;;;;;8.56;25.71;101615.16;4457203;32;34521;-81
2024/01/10 09:26:59;;;;;;;;;;;;;;;8.52;52.63;101619.94;4451915;32;33438;-80
2024/01/10 09:29:27;;;;;;;;;;;;;;;7.08;51.66;101619.81;4454948;32;34617;-80
2024/01/10 09:31:54;;;;;;;;;;;;;;;6.68;49.42;101624.00;4453763;32;35110;-80
2024/01/10 09:34:22;;;;;;;;;;;;;;;7.38;45.70;101615.50;4426178;32;33384;-80
2024/01/10 09:36:49;;;;;;;;;;;;;;;7.28;45.29;101604.41;4450519;32;33345;-80
2024/01/10 09:39:17;;;;;;;;;;;;;;;7.18;45.12;101612.09;4456796;32;33170;-80
2024/01/10 09:41:48;;;;;;;;;;;;;;;7.68;43.30;101606.94;4459466;32;34070;-81
2024/01/10 09:44:19;;;;;;;;;;;;;;;7.14;44.56;101609.13;4452240;32;34826;-80
2024/01/10 09:46:54;;;;;;;;;;;;;;;7.66;42.54;101603.31;4442090;32;33559;-79
2024/01/10 09:49:21;;;;;;;;;;;;;;;7.21;43.21;101602.06;4453810;32;33270;-79
2024/01/10 09:51:50;;;;;;;;;;;;;;;8.82;57.52;101606.03;4444868;32;34209;-79
2024/01/10 09:54:19;;;;;;;;;;;;;;;9.20;41.20;101596.19;4438562;32;33102;-80
2024/01/10 09:56:47;;;;;;;;;;;;;;;10.34;35.38;101597.13;4435301;32;34163;-79
2024/01/10 09:59:14;;;;;;;;;;;;;;;9.80;36.36;101592.16;4454377;32;34777;-79
2024/01/10 10:01:42;;;;;;;;;;;;;;;8.79;38.29;101586.03;4454272;32;34774;-79
2024/01/10 10:04:11;;;;;;;;;;;;;;;7.91;39.45;101595.97;4437597;32;34309;-80
2024/01/10 10:06:38;;;;;;;;;;;;;;;8.57;35.46;101574.72;4451123;32;33636;-79
2024/01/10 10:09:07;;;;;;;;;;;;;;;9.24;35.29;101576.63;4451717;32;34946;-79
2024/01/10 10:11:35;;;;;;;;;;;;;;;9.35;35.86;101569.69;4453657;32;34851;-79
2024/01/10 10:14:13;;;;;;;;;;;;;;;8.83;36.02;101577.75;4453600;32;34553;-79
2024/01/10 10:16:41;;;;;;;;;;;;;;;9.05;35.76;101574.28;4439930;32;33493;-79
2024/01/10 10:19:09;;;;;;;;;;;;;;;8.91;34.98;101573.19;4454252;32;34321;-78
2024/01/10 10:21:37;;;;;;;;;;;;;;;9.58;33.87;101575.00;4439850;32;33839;-78
2024/01/10 10:24:05;;;;;;;;;;;;;;;9.93;34.49;101574.19;4446732;32;35081;-78
2024/01/10 10:26:33;;;;;;;;;;;;;;;9.73;34.50;101564.00;4453875;32;32972;-78
2024/01/10 10:29:01;;;;;;;;;;;;;;;10.47;29.99;101559.16;4434875;32;33954;-78
2024/01/10 10:31:29;;;;;;;;;;;;;;;10.64;31.05;101553.53;4454359;32;34419;-78
2024/01/10 10:33:57;;;;;;;;;;;;;;;10.40;32.90;101553.56;4454026;32;35187;-78
2024/01/10 10:36:24;;;;;;;;;;;;;;;10.18;33.00;101555.34;4454400;32;34363;-78
2024/01/10 10:38:52;;;;;;;;;;;;;;;11.15;31.67;101545.09;4454266;32;34650;-78
2024/01/10 10:41:19;;;;;;;;;;;;;;;11.51;26.02;101543.28;4439977;32;33377;-78
2024/01/10 10:43:47;;;;;;;;;;;;;;;11.34;30.16;101530.81;4453829;32;34086;-78
2024/01/10 10:46:16;;;;;;;;;;;;;;;11.06;30.86;101534.06;4437687;32;34398;-79
2024/01/10 10:48:43;;;;;;;;;;;;;;;12.29;22.42;101532.06;4453436;32;34324;-78
2024/01/10 10:51:13;;;;;;;;;;;;;;;12.46;21.98;101530.56;4430838;32;32519;-79
2024/01/10 10:53:40;;;;;;;;;;;;;;;12.40;22.15;101530.19;4439656;32;34246;-78
2024/01/10 10:56:08;;;;;;;;;;;;;;;12.72;21.29;101524.41;4433899;32;33549;-78
2024/01/10 10:58:36;;;;;;;;;;;;;;;13.20;20.69;101529.13;4453895;32;34085;-78
2024/01/10 11:01:05;;;;;;;;;;;;;;;12.69;21.58;101519.03;4439771;32;33913;-79
2024/01/10 11:03:34;;;;;;;;;;;;;;;12.92;21.81;101514.38;4453817;32;35233;-79
2024/01/10 11:06:02;;;;;;;;;;;;;;;13.35;22.15;101509.28;4453409;32;33970;-80
2024/01/10 11:08:30;;;;;;;;;;;;;;;13.18;21.08;101501.28;4450180;32;33701;-79
2024/01/10 11:10:58;;;;;;;;;;;;;;;13.22;21.56;101506.69;4454391;32;33954;-79
2024/01/10 11:13:28;;;;;;;;;;;;;;;13.07;21.96;101499.72;4450888;32;34401;-78
2024/01/10 11:16:03;;;;;;;;;;;;;;;13.47;21.87;101494.37;4431070;32;33584;-78
2024/01/10 11:18:36;;;;;;;;;;;;;;;12.99;22.16;101498.34;4449087;32;34794;-79
2024/01/10 11:21:10;;;;;;;;;;;;;;;13.23;22.17;101488.59;4440998;32;32945;-78
2024/01/10 11:23:37;;;;;;;;;;;;;;;13.07;22.23;101484.13;4453801;32;34420;-79
2024/01/10 11:26:05;;;;;;;;;;;;;;;13.90;21.75;101480.41;4453479;32;34188;-79
2024/01/10 11:28:33;;;;;;;;;;;;;;;13.40;22.20;101474.00;4437486;32;34203;-78
2024/01/10 11:31:00;;;;;;;;;;;;;;;13.24;22.13;101479.06;4452195;32;34055;-78
2024/01/10 11:33:32;;;;;;;;;;;;;;;13.64;22.42;101473.69;4453412;32;34350;-77
2024/01/10 11:36:15;;;;;;;;;;;;;;;13.44;20.90;101472.47;4447128;32;33026;-76
2024/01/10 11:38:44;;;;;;;;;;;;;;;12.97;21.59;101479.16;4446691;32;34940;-79
2024/01/10 11:41:12;;;;;;;;;;;;;;;13.24;22.10;101469.53;4438768;32;34776;-77
2024/01/10 11:43:40;;;;;;;;;;;;;;;13.41;21.81;101467.09;4452853;32;34106;-80
2024/01/10 11:46:08;;;;;;;;;;;;;;;13.90;20.74;101455.25;4451491;32;33271;-79
2024/01/10 11:48:36;;;;;;;;;;;;;;;13.41;20.94;101464.50;4438588;32;34005;-81
2024/01/10 11:51:04;;;;;;;;;;;;;;;12.89;21.82;101459.59;4453530;32;33980;-81
2024/01/10 11:53:39;;;;;;;;;;;;;;;13.26;21.65;101465.31;4453284;32;34344;-79
2024/01/10 11:56:17;;;;;;;;;;;;;;;12.89;22.49;101470.00;4434208;32;33504;-77
2024/01/10 11:59:00;;;;;;;;;;;;;;;13.47;21.44;101465.75;4451579;32;34172;-79
2024/01/10 12:01:28;;;;;;;;;;;;;;;13.43;21.67;101466.38;4436094;32;35006;-80
2024/01/10 12:03:56;;;;;;;;;;;;;;;14.08;20.66;101451.91;4437666;32;34509;-80
2024/01/10 12:06:41;;;;;;;;;;;;;;;13.81;21.14;101446.91;4452331;32;34040;-77
2024/01/10 12:09:09;;;;;;;;;;;;;;;13.10;22.10;101447.88;4452971;32;34190;-80
2024/01/10 12:11:38;;;;;;;;;;;;;;;13.70;21.75;101450.59;4447009;32;34788;-79
2024/01/10 12:14:05;;;;;;;;;;;;;;;13.63;21.72;101438.03;4433354;32;34229;-78
2024/01/10 12:16:33;;;;;;;;;;;;;;;13.80;21.56;101432.09;4441337;32;34396;-80
2024/01/10 12:19:00;;;;;;;;;;;;;;;14.30;20.95;101431.44;4447746;32;33859;-80
2024/01/10 12:21:28;;;;;;;;;;;;;;;14.40;21.42;101429.38;4452854;32;34263;-79
2024/01/10 12:23:55;;;;;;;;;;;;;;;14.46;21.11;101432.31;4453419;32;35061;-79
2024/01/10 12:26:22;;;;;;;;;;;;;;;14.42;21.77;101432.94;4445139;32;33271;-79
2024/01/10 12:28:56;;;;;;;;;;;;;;;14.71;21.90;101426.75;4451360;32;33851;-80
2024/01/10 12:31:27;;;;;;;;;;;;;;;14.60;21.62;101425.25;4450499;32;34048;-80
2024/01/10 12:33:55;;;;;;;;;;;;;;;14.47;22.15;101429.78;4433112;32;34546;-80
2024/01/10 12:36:22;;;;;;;;;;;;;;;14.65;21.82;101435.12;4451024;32;33228;-80
2024/01/10 12:38:50;;;;;;;;;;;;;;;13.62;23.00;101437.13;4451565;32;35057;-79
2024/01/10 12:41:18;;;;;;;;;;;;;;;13.94;22.98;101441.56;4438376;32;34101;-79
2024/01/10 12:44:04;;;;;;;;;;;;;;;14.07;22.66;101431.88;4438054;32;34225;-80
2024/01/10 12:46:31;;;;;;;;;;;;;;;14.31;22.01;101433.25;4452251;32;33169;-81
2024/01/10 12:49:02;;;;;;;;;;;;;;;13.76;22.43;101425.78;4437098;32;34809;-78
2024/01/10 12:51:31;;;;;;;;;;;;;;;14.00;22.60;101432.31;4451220;32;35051;-79
2024/01/10 12:53:59;;;;;;;;;;;;;;;14.25;22.13;101432.91;4433512;32;35002;-80
2024/01/10 12:56:27;;;;;;;;;;;;;;;14.48;22.08;101434.16;4451263;32;34161;-80